createdAt,value
2023-04-22T00:01:15.877Z,8.21
2023-04-22T00:05:18.551Z,8.14
2023-04-22T00:09:23.427Z,8.16
2023-04-22T00:14:30.544Z,8.13
2023-04-22T00:18:33.648Z,8.04
2023-04-22T00:22:33.548Z,7.99
2023-04-22T00:26:37.083Z,7.92
2023-04-22T00:30:37.343Z,7.87
2023-04-22T00:34:40.246Z,7.81
2023-04-22T00:38:40.612Z,7.76
2023-04-22T00:42:43.879Z,7.74
2023-04-22T00:46:42.690Z,7.70
2023-04-22T00:50:46.337Z,7.64
2023-04-22T00:54:44.705Z,7.66
2023-04-22T00:58:48.836Z,7.69
2023-04-22T01:02:47.975Z,7.71
2023-04-22T01:06:51.768Z,7.73
2023-04-22T01:10:49.806Z,7.73
2023-04-22T01:14:53.340Z,7.73
2023-04-22T01:18:52.977Z,7.73
2023-04-22T01:22:56.583Z,7.73
2023-04-22T01:26:57.964Z,7.77
2023-04-22T01:31:01.164Z,7.70
2023-04-22T01:35:02.757Z,7.69
2023-04-22T01:39:05.125Z,7.67
2023-04-22T01:43:04.733Z,7.67
2023-04-22T01:47:10.003Z,7.67
2023-04-22T01:51:09.975Z,7.61
2023-04-22T01:55:13.386Z,7.54
2023-04-22T01:59:12.703Z,7.49
2023-04-22T02:03:17.412Z,7.53
2023-04-22T02:07:17.773Z,7.47
2023-04-22T02:11:20.242Z,7.47
2023-04-22T02:15:20.870Z,7.47
2023-04-22T02:19:23.711Z,7.28
2023-04-22T02:23:23.718Z,7.17
2023-04-22T02:27:26.474Z,7.17
2023-04-22T02:31:26.899Z,7.13
2023-04-22T02:35:30.387Z,7.10
2023-04-22T02:39:29.844Z,7.07
2023-04-22T02:43:33.405Z,7.05
2023-04-22T02:47:32.835Z,7.02
2023-04-22T02:51:35.895Z,6.99
2023-04-22T02:55:34.766Z,6.93
2023-04-22T02:59:38.560Z,6.85
2023-04-22T03:03:21.723Z,6.83
2023-04-22T03:07:20.868Z,6.83
2023-04-22T03:11:24.624Z,6.78
2023-04-22T03:15:24.854Z,6.79
2023-04-22T03:19:30.054Z,6.73
2023-04-22T03:23:29.855Z,6.76
2023-04-22T03:27:33.056Z,6.75
2023-04-22T03:31:32.993Z,6.74
2023-04-22T03:35:36.490Z,6.76
2023-04-22T03:39:37.072Z,6.76
2023-04-22T03:43:40.861Z,6.83
2023-04-22T03:47:43.926Z,6.90
2023-04-22T03:51:55.175Z,6.95
2023-04-22T03:55:56.824Z,7.01
2023-04-22T04:00:00.888Z,7.09
2023-04-22T04:04:01.261Z,7.16
2023-04-22T04:08:11.705Z,7.21
2023-04-22T04:12:12.012Z,7.26
2023-04-22T04:16:18.547Z,7.37
2023-04-22T04:20:20.917Z,7.52
2023-04-22T04:24:23.842Z,7.69
2023-04-22T04:28:24.970Z,7.95
2023-04-22T04:32:27.962Z,8.17
2023-04-22T04:36:28.924Z,8.39
2023-04-22T04:40:35.013Z,8.63
2023-04-22T04:44:41.035Z,8.89
2023-04-22T04:48:44.719Z,9.13
2023-04-22T04:52:45.050Z,9.35
2023-04-22T04:56:48.725Z,9.52
2023-04-22T05:00:48.987Z,9.68
2023-04-22T05:04:52.714Z,9.90
2023-04-22T05:08:52.968Z,10.17
2023-04-22T05:12:56.278Z,10.34
2023-04-22T05:16:39.782Z,10.51
2023-04-22T05:20:39.267Z,10.71
2023-04-22T05:24:44.410Z,10.91
2023-04-22T05:28:44.102Z,11.13
2023-04-22T05:32:48.404Z,11.38
2023-04-22T05:36:48.184Z,11.65
2023-04-22T05:40:51.564Z,11.86
2023-04-22T05:44:53.501Z,12.12
2023-04-22T05:48:57.732Z,12.38
2023-04-22T05:53:16.633Z,12.66
2023-04-22T05:57:20.605Z,12.94
2023-04-22T06:01:21.135Z,13.18
2023-04-22T06:05:28.843Z,13.40
2023-04-22T06:09:30.299Z,13.63
2023-04-22T06:13:34.179Z,13.91
2023-04-22T06:17:34.471Z,14.16
2023-04-22T06:21:38.310Z,14.42
2023-04-22T06:25:38.106Z,14.67
2023-04-22T06:29:42.290Z,14.90
2023-04-22T06:33:44.010Z,15.11
2023-04-22T06:37:47.665Z,15.15
2023-04-22T06:41:30.647Z,15.23
2023-04-22T06:45:36.507Z,15.40
2023-04-22T06:49:58.334Z,15.73
2023-04-22T06:54:04.570Z,15.94
2023-04-22T06:58:10.795Z,16.11
2023-04-22T07:02:11.571Z,15.86
2023-04-22T07:06:15.337Z,15.98
2023-04-22T07:10:15.157Z,16.26
2023-04-22T07:14:24.878Z,16.62
2023-04-22T07:18:26.190Z,16.81
2023-04-22T07:22:29.288Z,16.66
2023-04-22T07:26:28.473Z,16.69
2023-04-22T07:30:32.368Z,16.73
2023-04-22T07:34:31.187Z,16.80
2023-04-22T07:38:34.586Z,16.98
2023-04-22T07:42:34.260Z,17.24
2023-04-22T07:46:40.366Z,17.22
2023-04-22T07:50:43.371Z,17.30
2023-04-22T07:54:46.065Z,17.38
2023-04-22T07:58:46.603Z,17.40
2023-04-22T08:02:51.170Z,17.55
2023-04-22T08:06:51.652Z,17.51
2023-04-22T08:10:51.377Z,17.53
2023-04-22T08:14:54.591Z,17.53
2023-04-22T08:18:55.884Z,17.74
2023-04-22T08:22:59.986Z,17.98
2023-04-22T08:26:59.777Z,18.06
2023-04-22T08:31:02.758Z,17.96
2023-04-22T08:35:04.743Z,17.97
2023-04-22T08:39:02.524Z,17.81
2023-04-22T08:42:51.709Z,17.82
2023-04-22T08:46:40.913Z,17.86
2023-04-22T08:50:33.207Z,17.91
2023-04-22T08:54:20.039Z,18.03
2023-04-22T08:58:06.652Z,18.16
2023-04-22T09:01:59.481Z,18.30
2023-04-22T09:06:01.729Z,18.42
2023-04-22T09:09:59.216Z,18.35
2023-04-22T09:14:01.734Z,18.42
2023-04-22T09:17:58.585Z,18.37
2023-04-22T09:21:59.786Z,18.11
2023-04-22T09:25:57.005Z,18.35
2023-04-22T09:29:57.431Z,18.69
2023-04-22T09:33:45.506Z,18.68
2023-04-22T09:37:48.846Z,18.74
2023-04-22T09:41:49.350Z,18.99
2023-04-22T09:45:52.872Z,19.15
2023-04-22T09:49:52.218Z,19.05
2023-04-22T09:53:55.035Z,19.08
2023-04-22T09:57:52.624Z,19.32
2023-04-22T10:01:53.264Z,19.45
2023-04-22T10:05:51.102Z,19.22
2023-04-22T10:09:50.730Z,19.20
2023-04-22T10:13:48.120Z,19.11
2023-04-22T10:17:49.070Z,19.17
2023-04-22T10:21:46.024Z,19.28
2023-04-22T10:25:47.336Z,19.39
2023-04-22T10:29:44.688Z,19.56
2023-04-22T10:33:47.578Z,19.81
2023-04-22T10:37:44.974Z,19.99
2023-04-22T10:41:45.617Z,19.91
2023-04-22T10:45:42.988Z,19.86
2023-04-22T10:49:44.132Z,19.88
2023-04-22T10:53:42.946Z,19.87
2023-04-22T10:57:43.568Z,19.94
2023-04-22T11:01:41.019Z,19.98
2023-04-22T11:05:42.742Z,20.01
2023-04-22T11:09:40.341Z,20.20
2023-04-22T11:13:43.044Z,20.19
2023-04-22T11:17:38.637Z,19.90
2023-04-22T11:21:39.380Z,20.00
2023-04-22T11:25:36.729Z,20.50
2023-04-22T11:29:37.275Z,20.97
2023-04-22T11:33:34.789Z,21.27
2023-04-22T11:37:35.585Z,21.90
2023-04-22T11:41:33.370Z,21.95
2023-04-22T11:45:32.318Z,21.34
2023-04-22T11:49:30.090Z,20.33
2023-04-22T11:53:31.388Z,19.39
2023-04-22T11:57:29.150Z,18.84
2023-04-22T12:01:29.521Z,18.59
2023-04-22T12:05:27.861Z,18.45
2023-04-22T12:09:29.158Z,19.04
2023-04-22T12:13:26.367Z,19.71
2023-04-22T12:17:27.527Z,20.43
2023-04-22T12:21:25.251Z,20.81
2023-04-22T12:25:26.680Z,20.76
2023-04-22T12:29:23.911Z,21.01
2023-04-22T12:33:25.577Z,21.25
2023-04-22T12:37:32.021Z,21.21
2023-04-22T12:41:35.417Z,21.03
2023-04-22T12:45:35.992Z,20.88
2023-04-22T12:49:39.492Z,21.05
2023-04-22T12:53:39.968Z,21.34
2023-04-22T12:57:43.421Z,21.60
2023-04-22T13:01:44.015Z,21.80
2023-04-22T13:05:47.297Z,21.40
2023-04-22T13:09:48.025Z,20.65
2023-04-22T13:13:50.793Z,19.86
2023-04-22T13:17:51.517Z,19.13
2023-04-22T13:21:54.447Z,18.65
2023-04-22T13:25:53.718Z,18.30
2023-04-22T13:29:57.472Z,18.03
2023-04-22T13:33:58.022Z,17.61
2023-04-22T13:38:01.541Z,17.25
2023-04-22T13:42:01.454Z,17.05
2023-04-22T13:46:04.789Z,16.98
2023-04-22T13:50:04.922Z,17.02
2023-04-22T13:54:06.828Z,17.11
2023-04-22T13:58:10.039Z,17.29
2023-04-22T14:02:10.017Z,17.45
2023-04-22T14:06:12.620Z,17.68
2023-04-22T14:10:13.190Z,17.74
2023-04-22T14:14:16.054Z,17.75
2023-04-22T14:18:16.142Z,17.74
2023-04-22T14:22:19.014Z,17.72
2023-04-22T14:26:19.095Z,17.74
2023-04-22T14:30:22.196Z,17.78
2023-04-22T14:34:20.952Z,17.94
2023-04-22T14:38:23.658Z,18.11
2023-04-22T14:42:23.114Z,18.35
2023-04-22T14:46:26.225Z,18.60
2023-04-22T14:50:25.035Z,18.77
2023-04-22T14:54:28.669Z,18.83
2023-04-22T14:58:29.108Z,18.81
2023-04-22T15:02:32.417Z,18.75
2023-04-22T15:06:30.988Z,18.56
2023-04-22T15:10:33.998Z,18.35
2023-04-22T15:14:34.048Z,18.21
2023-04-22T15:18:37.799Z,18.13
2023-04-22T15:22:38.023Z,18.14
2023-04-22T15:26:40.570Z,18.10
2023-04-22T15:30:40.062Z,17.91
2023-04-22T15:34:43.025Z,17.77
2023-04-22T15:38:43.004Z,17.74
2023-04-22T15:42:45.786Z,17.75
2023-04-22T15:46:46.124Z,17.82
2023-04-22T15:50:49.717Z,17.88
2023-04-22T15:54:47.346Z,17.81
2023-04-22T15:58:51.339Z,17.63
2023-04-22T16:02:50.392Z,17.45
2023-04-22T16:06:52.059Z,17.24
2023-04-22T16:10:52.552Z,17.04
2023-04-22T16:14:53.163Z,16.80
2023-04-22T16:18:53.230Z,16.65
2023-04-22T16:23:00.243Z,16.47
2023-04-22T16:26:59.148Z,16.28
2023-04-22T16:31:01.728Z,16.07
2023-04-22T16:34:58.489Z,15.90
2023-04-22T16:39:01.624Z,15.74
2023-04-22T16:42:58.285Z,15.57
2023-04-22T16:47:01.239Z,15.24
2023-04-22T16:51:01.158Z,14.82
2023-04-22T16:55:01.890Z,14.53
2023-04-22T16:59:02.385Z,14.25
2023-04-22T17:03:03.126Z,14.01
2023-04-22T17:07:03.377Z,13.76
2023-04-22T17:11:08.814Z,13.45
2023-04-22T17:15:09.551Z,13.16
2023-04-22T17:19:12.742Z,13.11
2023-04-22T17:23:09.576Z,12.88
2023-04-22T17:27:12.119Z,12.74
2023-04-22T17:31:13.403Z,12.49
2023-04-22T17:35:16.978Z,12.28
2023-04-22T17:39:27.760Z,12.09
2023-04-22T17:43:25.642Z,11.87
2023-04-22T17:47:29.051Z,11.53
2023-04-22T17:51:26.301Z,11.27
2023-04-22T17:55:29.412Z,11.06
2023-04-22T17:59:28.420Z,10.90
2023-04-22T18:03:29.796Z,10.81
2023-04-22T18:07:30.513Z,10.66
2023-04-22T18:11:31.872Z,10.57
2023-04-22T18:15:32.693Z,10.44
2023-04-22T18:19:36.123Z,10.29
2023-04-22T18:23:34.234Z,10.11
2023-04-22T18:27:37.329Z,10.01
2023-04-22T18:31:35.283Z,9.93
2023-04-22T18:35:39.088Z,9.84
2023-04-22T18:39:44.013Z,9.71
2023-04-22T18:43:45.121Z,9.59
2023-04-22T18:47:45.553Z,9.45
2023-04-22T18:51:46.968Z,9.34
2023-04-22T18:55:46.363Z,9.20
2023-04-22T18:59:48.253Z,9.09
2023-04-22T19:03:53.929Z,8.96
2023-04-22T19:07:54.416Z,8.87
2023-04-22T19:11:55.365Z,8.77
2023-04-22T19:15:55.614Z,8.65
2023-04-22T19:19:56.931Z,8.54
2023-04-22T19:23:57.395Z,8.46
2023-04-22T19:28:00.570Z,8.35
2023-04-22T19:32:00.422Z,8.25
2023-04-22T19:36:04.087Z,8.22
2023-04-22T19:40:02.053Z,8.11
2023-04-22T19:44:05.008Z,8.04
2023-04-22T19:48:01.908Z,7.97
2023-04-22T19:52:05.231Z,7.89
2023-04-22T19:56:05.723Z,7.84
2023-04-22T20:00:09.174Z,7.74
2023-04-22T20:04:18.018Z,7.68
2023-04-22T20:08:21.106Z,7.65
2023-04-22T20:12:21.601Z,7.65
2023-04-22T20:16:24.630Z,7.55
2023-04-22T20:20:23.856Z,7.38
2023-04-22T20:24:27.261Z,7.31
2023-04-22T20:28:27.518Z,7.24
2023-04-22T20:32:30.565Z,7.16
2023-04-22T20:36:30.756Z,7.10
2023-04-22T20:40:33.704Z,7.00
2023-04-22T20:44:33.758Z,6.99
2023-04-22T20:48:36.022Z,6.94
2023-04-22T20:52:35.570Z,6.93
2023-04-22T20:56:38.881Z,6.90
2023-04-22T21:00:38.867Z,6.85
2023-04-22T21:04:42.375Z,6.78
2023-04-22T21:08:42.836Z,6.75
2023-04-22T21:12:45.687Z,6.69
2023-04-22T21:16:47.878Z,6.71
2023-04-22T21:20:52.202Z,6.70
2023-04-22T21:24:52.990Z,6.67
2023-04-22T21:28:56.772Z,6.71
2023-04-22T21:32:56.881Z,6.76
2023-04-22T21:36:59.956Z,6.75
2023-04-22T21:40:59.700Z,6.79
2023-04-22T21:45:02.821Z,6.82
2023-04-22T21:49:02.748Z,6.88
2023-04-22T21:53:05.124Z,6.93
2023-04-22T21:57:04.649Z,6.99
2023-04-22T22:01:07.148Z,7.03
2023-04-22T22:05:06.789Z,7.08
2023-04-22T22:09:09.837Z,7.16
2023-04-22T22:13:08.951Z,7.19
2023-04-22T22:17:12.370Z,7.18
2023-04-22T22:21:12.702Z,7.22
2023-04-22T22:25:16.175Z,7.26
2023-04-22T22:29:15.810Z,7.31
2023-04-22T22:33:18.959Z,7.39
2023-04-22T22:37:18.862Z,7.43
2023-04-22T22:41:21.274Z,7.51
2023-04-22T22:45:20.857Z,7.58
2023-04-22T22:49:23.909Z,7.61
2023-04-22T22:53:22.903Z,7.68
2023-04-22T22:57:25.837Z,7.73
2023-04-22T23:01:26.118Z,7.90
2023-04-22T23:05:28.645Z,7.84
2023-04-22T23:09:28.855Z,7.88
2023-04-22T23:13:31.387Z,7.89
2023-04-22T23:17:30.919Z,7.89
2023-04-22T23:21:33.367Z,7.91
2023-04-22T23:25:32.994Z,7.97
2023-04-22T23:29:38.200Z,8.01
2023-04-22T23:33:38.039Z,8.02
2023-04-22T23:37:41.001Z,8.07
2023-04-22T23:41:40.948Z,8.09
2023-04-22T23:45:43.923Z,8.10
2023-04-22T23:49:43.817Z,8.10
2023-04-22T23:53:47.127Z,8.15
2023-04-22T23:57:48.060Z,8.15
